Time;durP1;ratioP1;P1;durP2;ratioP2;P2;SDS_P1;SDS_P2;PMS_P1;PMS_P2;Temp;Humidity;BMP_temperature;BMP_pressure;BME280_temperature;BME280_humidity;BME280_pressure;Samples;Min_cycle;Max_cycle;Signal;HPM_P1;HPM_P2
2020/12/08 00:00:35;;;;;;;40.50;23.60;;;2.00;99.90;;;;;;4990501;28;20224;-70
2020/12/08 00:03:01;;;;;;;36.40;23.50;;;2.00;99.90;;;;;;4993639;28;20724;-72
2020/12/08 00:05:28;;;;;;;44.23;23.70;;;2.00;99.90;;;;;;4991010;28;20216;-70
2020/12/08 00:07:55;;;;;;;42.40;23.97;;;2.00;99.90;;;;;;4987576;28;20201;-72
2020/12/08 00:10:22;;;;;;;40.70;23.87;;;2.00;99.90;;;;;;4988028;28;20644;-70
2020/12/08 00:12:49;;;;;;;37.53;23.90;;;2.00;99.90;;;;;;4989050;28;20219;-70
2020/12/08 00:15:16;;;;;;;39.07;24.03;;;2.00;99.90;;;;;;4987359;28;21260;-72
2020/12/08 00:17:42;;;;;;;42.17;24.93;;;2.00;99.90;;;;;;4986867;28;20212;-71
2020/12/08 00:20:10;;;;;;;38.17;24.03;;;2.00;99.90;;;;;;4989227;28;20229;-73
2020/12/08 00:22:37;;;;;;;40.53;23.47;;;2.00;99.90;;;;;;4987962;28;20205;-70
2020/12/08 00:25:05;;;;;;;37.23;22.60;;;2.10;99.90;;;;;;4987115;28;20215;-70
2020/12/08 00:27:32;;;;;;;42.47;23.53;;;2.10;99.90;;;;;;4987903;28;20200;-69
2020/12/08 00:29:58;;;;;;;41.83;24.17;;;2.20;99.90;;;;;;4985412;28;20201;-73
2020/12/08 00:32:25;;;;;;;43.13;24.03;;;2.20;99.90;;;;;;4991272;28;20205;-71
2020/12/08 00:34:51;;;;;;;36.77;22.93;;;2.30;99.90;;;;;;4988634;28;21680;-72
2020/12/08 00:37:18;;;;;;;44.47;24.20;;;2.30;99.90;;;;;;4987973;28;20197;-70
2020/12/08 00:39:44;;;;;;;45.30;25.53;;;2.30;99.90;;;;;;4990465;28;20682;-70
2020/12/08 00:42:12;;;;;;;43.60;25.60;;;2.30;99.90;;;;;;4987767;28;20231;-72
2020/12/08 00:44:38;;;;;;;42.97;26.10;;;2.40;99.90;;;;;;4986630;28;20204;-70
2020/12/08 00:47:05;;;;;;;43.97;25.77;;;2.40;99.90;;;;;;4987215;28;20673;-71
2020/12/08 00:49:31;;;;;;;44.13;26.13;;;2.40;99.90;;;;;;4990623;28;20205;-70
2020/12/08 00:51:58;;;;;;;41.57;24.87;;;2.40;99.90;;;;;;4989285;28;20814;-71
2020/12/08 00:54:25;;;;;;;40.20;24.77;;;2.50;99.90;;;;;;4989132;28;20291;-73
2020/12/08 00:56:51;;;;;;;40.20;23.83;;;2.50;99.90;;;;;;4987743;28;20375;-72
2020/12/08 00:59:19;;;;;;;41.03;23.47;;;2.50;99.90;;;;;;4996206;28;20685;-72
2020/12/08 01:01:45;;;;;;;44.57;24.93;;;2.50;99.90;;;;;;4991676;28;20228;-70
2020/12/08 01:04:12;;;;;;;43.13;24.07;;;2.50;99.90;;;;;;4992477;28;20202;-70
2020/12/08 01:06:39;;;;;;;43.17;24.43;;;2.50;99.90;;;;;;4992806;28;20205;-71
2020/12/08 01:09:06;;;;;;;42.53;24.67;;;2.50;99.90;;;;;;4988222;28;20212;-70
2020/12/08 01:11:39;;;;;;;43.10;25.50;;;2.40;99.90;;;;;;4988350;28;22209;-69
2020/12/08 01:14:06;;;;;;;39.80;24.13;;;2.50;99.90;;;;;;4989088;28;20194;-71
2020/12/08 01:16:33;;;;;;;42.23;25.17;;;2.50;99.90;;;;;;4991202;28;20196;-69
2020/12/08 01:19:00;;;;;;;43.00;26.47;;;2.50;99.90;;;;;;4986260;28;20204;-71
2020/12/08 01:21:26;;;;;;;43.57;25.33;;;2.50;99.90;;;;;;4987438;28;20233;-70
2020/12/08 01:23:53;;;;;;;43.87;24.23;;;2.60;99.90;;;;;;4986905;28;20201;-71
2020/12/08 01:26:23;;;;;;;44.93;25.67;;;2.60;99.90;;;;;;4988012;28;20197;-70
2020/12/08 01:28:49;;;;;;;51.90;26.20;;;2.60;99.90;;;;;;4988357;28;20674;-69
2020/12/08 01:31:16;;;;;;;46.97;27.77;;;2.70;99.90;;;;;;4985839;28;20208;-69
2020/12/08 01:33:44;;;;;;;47.60;26.67;;;2.70;99.90;;;;;;4983897;28;20686;-72
2020/12/08 01:36:10;;;;;;;49.53;27.40;;;2.70;99.90;;;;;;4986137;28;20740;-72
2020/12/08 01:38:37;;;;;;;42.90;25.90;;;2.70;99.90;;;;;;4989304;28;20216;-69
2020/12/08 01:41:04;;;;;;;42.87;25.53;;;2.80;99.90;;;;;;4988876;28;20723;-70
2020/12/08 01:43:30;;;;;;;42.30;25.63;;;2.80;99.90;;;;;;4986471;28;20210;-71
2020/12/08 01:45:57;;;;;;;42.93;25.53;;;2.80;99.90;;;;;;4987999;28;20207;-71
2020/12/08 01:48:23;;;;;;;45.83;25.67;;;2.80;99.90;;;;;;4989403;28;20201;-70
2020/12/08 01:50:51;;;;;;;46.30;25.93;;;2.80;99.90;;;;;;4986440;28;20205;-69
2020/12/08 01:53:17;;;;;;;48.63;26.03;;;2.90;99.90;;;;;;4990732;28;20202;-69
2020/12/08 01:55:47;;;;;;;43.97;25.93;;;2.90;99.90;;;;;;4988950;28;20236;-69
2020/12/08 01:58:15;;;;;;;42.30;24.90;;;2.90;99.90;;;;;;4989522;28;20737;-71
2020/12/08 02:00:41;;;;;;;43.17;24.70;;;2.90;99.90;;;;;;4990033;28;20220;-70
2020/12/08 02:03:08;;;;;;;43.07;25.57;;;2.90;99.90;;;;;;4992178;28;20247;-72
2020/12/08 02:05:36;;;;;;;41.50;25.20;;;3.00;99.90;;;;;;4991690;28;20204;-69
2020/12/08 02:08:04;;;;;;;40.27;24.23;;;3.00;99.90;;;;;;4997781;28;20205;-70
2020/12/08 02:10:30;;;;;;;42.93;25.60;;;3.00;99.90;;;;;;4991332;28;20267;-70
2020/12/08 02:12:57;;;;;;;39.23;24.53;;;3.00;99.90;;;;;;4991944;28;20208;-69
2020/12/08 02:15:23;;;;;;;41.40;24.27;;;3.00;99.90;;;;;;4994881;28;20317;-70
2020/12/08 02:17:50;;;;;;;38.37;23.43;;;3.10;99.90;;;;;;4989500;28;20201;-69
2020/12/08 02:20:17;;;;;;;37.60;23.50;;;3.10;99.90;;;;;;4989814;28;20209;-69
2020/12/08 02:22:44;;;;;;;38.97;23.47;;;3.10;99.90;;;;;;4990283;28;20205;-69
2020/12/08 02:25:10;;;;;;;40.23;24.37;;;3.10;99.90;;;;;;4991489;28;20205;-70
2020/12/08 02:27:37;;;;;;;41.57;24.57;;;3.20;99.90;;;;;;4989239;28;20216;-69
2020/12/08 02:30:05;;;;;;;39.83;23.83;;;3.20;99.90;;;;;;4991512;28;20208;-69
2020/12/08 02:32:31;;;;;;;33.00;22.30;;;3.20;99.90;;;;;;4991424;28;20208;-71
2020/12/08 02:34:58;;;;;;;38.13;23.70;;;3.20;99.90;;;;;;4992210;28;20220;-69
2020/12/08 02:37:25;;;;;;;36.63;22.87;;;3.20;99.90;;;;;;4991896;28;20226;-69
2020/12/08 02:39:51;;;;;;;37.80;23.03;;;3.20;99.90;;;;;;4991942;28;20201;-70
2020/12/08 02:42:18;;;;;;;38.27;23.07;;;3.20;99.90;;;;;;4992202;28;20244;-70
2020/12/08 02:44:45;;;;;;;36.93;23.13;;;3.20;99.90;;;;;;4991023;28;20252;-71
2020/12/08 02:47:11;;;;;;;40.27;23.67;;;3.10;99.90;;;;;;4993335;28;20666;-70
2020/12/08 02:49:38;;;;;;;42.33;23.67;;;3.00;99.90;;;;;;4990627;28;20201;-71
2020/12/08 02:52:05;;;;;;;40.13;23.47;;;2.90;99.90;;;;;;4994028;28;20266;-71
2020/12/08 02:54:32;;;;;;;42.17;23.63;;;2.90;99.90;;;;;;4989636;28;20228;-70
2020/12/08 02:57:01;;;;;;;39.73;23.90;;;2.90;99.90;;;;;;4990859;28;21511;-70
2020/12/08 02:59:28;;;;;;;42.47;24.10;;;2.80;99.90;;;;;;4989527;28;20288;-71
2020/12/08 03:01:55;;;;;;;43.60;24.53;;;2.80;99.90;;;;;;4990213;28;20291;-70
2020/12/08 03:04:22;;;;;;;43.00;25.93;;;2.80;99.90;;;;;;4988229;28;20411;-70
2020/12/08 03:06:48;;;;;;;46.27;26.20;;;2.80;99.90;;;;;;4989518;28;20718;-71
2020/12/08 03:09:15;;;;;;;46.90;25.80;;;2.90;99.90;;;;;;4990505;28;20208;-71
2020/12/08 03:11:42;;;;;;;44.53;26.50;;;2.90;99.90;;;;;;4986666;28;20205;-71
2020/12/08 03:14:09;;;;;;;43.67;25.37;;;3.00;99.90;;;;;;4989032;28;20216;-70
2020/12/08 03:16:36;;;;;;;42.97;25.23;;;3.00;99.90;;;;;;4992094;28;20202;-70
2020/12/08 03:19:02;;;;;;;47.37;25.20;;;3.00;99.90;;;;;;4994095;28;20205;-72
2020/12/08 03:21:32;;;;;;;42.93;24.37;;;3.10;99.90;;;;;;5001149;28;20224;-70
2020/12/08 03:23:59;;;;;;;44.67;24.87;;;3.10;99.90;;;;;;5006825;28;20200;-69
2020/12/08 03:26:26;;;;;;;44.60;25.50;;;3.10;99.90;;;;;;5013641;28;20208;-70
2020/12/08 03:28:54;;;;;;;44.53;26.73;;;3.10;99.90;;;;;;4998342;28;20658;-70
2020/12/08 03:31:21;;;;;;;44.37;27.20;;;3.20;99.90;;;;;;4994948;28;20255;-69
2020/12/08 03:33:47;;;;;;;44.37;24.77;;;3.20;99.90;;;;;;4989006;28;20207;-70
2020/12/08 03:36:15;;;;;;;42.83;26.27;;;3.20;99.90;;;;;;4989630;28;20209;-69
2020/12/08 03:38:43;;;;;;;46.30;27.87;;;3.20;99.90;;;;;;4990867;28;20204;-69
2020/12/08 03:41:09;;;;;;;43.30;26.27;;;3.20;99.90;;;;;;4987973;28;20228;-70
2020/12/08 03:43:36;;;;;;;43.97;26.90;;;3.20;99.90;;;;;;4989985;28;20201;-70
2020/12/08 03:46:03;;;;;;;43.20;26.60;;;3.30;99.90;;;;;;4993133;28;20228;-70
2020/12/08 03:48:30;;;;;;;47.03;27.03;;;3.30;99.90;;;;;;4987500;28;20224;-70
2020/12/08 03:50:56;;;;;;;46.27;27.57;;;3.30;99.90;;;;;;4990363;28;20229;-71
2020/12/08 03:53:23;;;;;;;43.73;25.20;;;3.30;99.90;;;;;;4988492;28;20205;-69
2020/12/08 03:55:49;;;;;;;44.37;25.83;;;3.30;99.90;;;;;;4989295;28;20236;-70
2020/12/08 03:58:16;;;;;;;42.47;26.00;;;3.30;99.90;;;;;;4991058;28;20211;-71
2020/12/08 04:00:43;;;;;;;42.83;26.40;;;3.30;99.90;;;;;;4989216;28;20224;-71
2020/12/08 04:03:10;;;;;;;41.70;25.70;;;3.30;99.90;;;;;;4987995;28;20213;-70
2020/12/08 04:05:37;;;;;;;41.40;26.07;;;3.30;99.90;;;;;;4989300;28;20208;-70
2020/12/08 04:08:03;;;;;;;41.20;26.33;;;3.30;99.90;;;;;;4988174;28;20205;-71
2020/12/08 04:10:30;;;;;;;39.83;25.73;;;3.30;99.90;;;;;;4987507;28;20666;-71
2020/12/08 04:12:56;;;;;;;42.87;26.37;;;3.30;99.90;;;;;;4990487;28;20208;-70
2020/12/08 04:15:23;;;;;;;42.43;27.23;;;3.30;99.90;;;;;;4990307;28;20197;-70
2020/12/08 04:17:49;;;;;;;43.43;27.07;;;3.30;99.90;;;;;;4987219;28;20204;-71
2020/12/08 04:20:17;;;;;;;42.43;27.33;;;3.30;99.90;;;;;;4985897;28;20533;-71
2020/12/08 04:22:43;;;;;;;43.97;28.43;;;3.30;99.90;;;;;;4984546;28;20236;-70
2020/12/08 04:25:10;;;;;;;43.73;28.70;;;3.30;99.90;;;;;;4988958;28;20657;-69
2020/12/08 04:27:36;;;;;;;45.10;28.07;;;3.30;99.90;;;;;;4988137;28;20213;-72
2020/12/08 04:30:03;;;;;;;44.33;27.63;;;3.30;99.90;;;;;;4986940;28;20209;-71
2020/12/08 04:32:30;;;;;;;44.37;28.60;;;3.30;99.90;;;;;;4986969;28;20297;-69
2020/12/08 04:34:56;;;;;;;47.10;27.70;;;3.30;99.90;;;;;;4990605;28;20209;-69
2020/12/08 04:37:24;;;;;;;45.20;28.80;;;3.30;99.90;;;;;;4987832;28;20288;-68
2020/12/08 04:39:50;;;;;;;45.20;29.13;;;3.20;99.90;;;;;;4987890;28;20198;-69
2020/12/08 04:42:17;;;;;;;44.73;29.43;;;3.20;99.90;;;;;;4988247;28;20303;-70
2020/12/08 04:44:44;;;;;;;46.57;29.13;;;3.20;99.90;;;;;;4992820;28;20193;-69
2020/12/08 04:47:21;;;;;;;47.87;29.03;;;3.20;99.90;;;;;;4991884;28;20212;-70
2020/12/08 04:49:49;;;;;;;48.10;29.80;;;3.10;99.90;;;;;;4994867;28;20201;-70
2020/12/08 04:52:16;;;;;;;47.67;30.00;;;3.10;99.90;;;;;;4994943;28;20261;-72
2020/12/08 04:54:44;;;;;;;46.53;29.57;;;3.10;99.90;;;;;;4993773;28;20229;-72
2020/12/08 04:57:10;;;;;;;45.60;29.80;;;3.00;99.90;;;;;;4996171;28;20581;-69
2020/12/08 04:59:38;;;;;;;49.80;30.90;;;3.00;99.90;;;;;;4995137;28;20227;-69
2020/12/08 05:02:05;;;;;;;49.77;31.13;;;2.90;99.90;;;;;;5008395;28;20229;-71
2020/12/08 05:04:32;;;;;;;46.13;30.60;;;2.90;99.90;;;;;;5000087;28;20207;-70
2020/12/08 05:07:02;;;;;;;48.57;30.27;;;2.90;99.90;;;;;;5002226;28;20216;-70
2020/12/08 05:09:29;;;;;;;49.70;30.27;;;2.80;99.90;;;;;;4996999;28;20259;-68
2020/12/08 05:11:58;;;;;;;48.13;30.20;;;2.80;99.90;;;;;;5009378;28;20223;-69
2020/12/08 05:14:24;;;;;;;48.63;30.83;;;2.70;99.90;;;;;;5001241;28;20201;-70
2020/12/08 05:17:02;;;;;;;49.23;30.10;;;2.70;99.90;;;;;;4996760;28;20197;-70
2020/12/08 05:19:28;;;;;;;46.03;30.03;;;2.70;99.90;;;;;;5017131;28;20559;-70
2020/12/08 05:21:55;;;;;;;53.57;32.37;;;2.70;99.90;;;;;;5007671;28;20229;-70
2020/12/08 05:24:26;;;;;;;49.67;32.70;;;2.70;99.90;;;;;;4997453;28;20200;-67
2020/12/08 05:26:54;;;;;;;53.50;32.67;;;2.70;99.90;;;;;;4995392;28;20201;-70
2020/12/08 05:29:22;;;;;;;53.50;31.37;;;2.70;99.90;;;;;;4997350;28;20201;-70
2020/12/08 05:31:50;;;;;;;52.50;31.93;;;2.80;99.90;;;;;;4996028;28;20651;-70
2020/12/08 05:34:19;;;;;;;50.97;31.90;;;2.70;99.90;;;;;;5002542;28;20209;-70
2020/12/08 05:36:48;;;;;;;55.23;34.53;;;2.70;99.90;;;;;;4995787;28;20330;-70
2020/12/08 05:39:19;;;;;;;53.97;33.07;;;2.70;99.90;;;;;;4995626;28;20662;-71
2020/12/08 05:41:46;;;;;;;62.67;36.73;;;2.80;99.90;;;;;;4992368;28;20208;-70
2020/12/08 05:44:17;;;;;;;54.57;34.43;;;2.80;99.90;;;;;;4997268;28;20223;-70
2020/12/08 05:46:46;;;;;;;59.50;37.40;;;2.80;99.90;;;;;;4996700;28;20204;-73
2020/12/08 05:49:14;;;;;;;61.97;37.17;;;2.90;99.90;;;;;;4992426;28;20776;-69
2020/12/08 05:51:43;;;;;;;60.27;36.17;;;2.90;99.90;;;;;;5001409;28;20208;-69
2020/12/08 05:54:15;;;;;;;58.30;36.50;;;2.90;99.90;;;;;;4998235;28;20236;-69
2020/12/08 05:56:42;;;;;;;65.27;36.73;;;2.90;99.90;;;;;;4997309;28;20205;-68
2020/12/08 05:59:09;;;;;;;60.87;37.90;;;2.90;99.90;;;;;;5001229;28;20224;-69
2020/12/08 06:01:47;;;;;;;66.30;37.07;;;2.90;99.90;;;;;;4999880;28;20232;-68
2020/12/08 06:04:14;;;;;;;64.30;36.87;;;2.90;99.90;;;;;;4996521;28;20202;-68
2020/12/08 06:06:47;;;;;;;59.63;36.63;;;2.90;99.90;;;;;;4994586;28;20193;-69
2020/12/08 06:09:22;;;;;;;60.47;35.87;;;2.90;99.90;;;;;;4999743;28;20197;-68
2020/12/08 06:11:49;;;;;;;63.83;38.07;;;2.90;99.90;;;;;;5005810;28;20543;-69
2020/12/08 06:14:16;;;;;;;57.77;35.03;;;2.90;99.90;;;;;;5000446;28;20209;-69
2020/12/08 06:16:42;;;;;;;61.07;35.73;;;2.90;99.90;;;;;;4999509;28;20207;-69
2020/12/08 06:19:10;;;;;;;62.97;37.40;;;2.90;99.90;;;;;;4996641;28;20236;-69
2020/12/08 06:21:39;;;;;;;55.93;34.97;;;2.80;99.90;;;;;;5003843;28;20237;-69
2020/12/08 06:24:06;;;;;;;60.07;36.40;;;2.80;99.90;;;;;;4997427;28;20207;-68
2020/12/08 06:26:37;;;;;;;59.50;36.10;;;2.80;99.90;;;;;;4992539;28;20209;-69
2020/12/08 06:29:07;;;;;;;56.20;34.37;;;2.80;99.90;;;;;;4996573;28;20298;-69
2020/12/08 06:31:42;;;;;;;51.83;34.07;;;2.80;99.90;;;;;;4995755;28;21201;-71
2020/12/08 06:34:10;;;;;;;51.90;34.10;;;2.80;99.90;;;;;;4997626;28;20604;-69
2020/12/08 06:36:37;;;;;;;52.33;32.90;;;2.90;99.90;;;;;;4994374;28;20197;-70
2020/12/08 06:39:05;;;;;;;49.07;33.30;;;2.80;99.90;;;;;;4998065;28;20201;-72
2020/12/08 06:41:33;;;;;;;52.70;31.47;;;2.90;99.90;;;;;;4998074;28;20620;-70
2020/12/08 06:44:00;;;;;;;48.57;31.23;;;2.90;99.90;;;;;;5005238;28;20205;-70
2020/12/08 06:46:27;;;;;;;46.17;31.27;;;2.80;99.90;;;;;;4998848;28;20283;-69
2020/12/08 06:49:02;;;;;;;48.37;31.30;;;2.80;99.90;;;;;;5008136;28;20284;-70
2020/12/08 06:51:30;;;;;;;44.83;29.87;;;2.80;99.90;;;;;;5010868;28;20200;-69
2020/12/08 06:53:56;;;;;;;45.00;30.17;;;2.80;99.90;;;;;;5000945;28;20212;-69
2020/12/08 06:56:30;;;;;;;46.17;29.70;;;2.80;99.90;;;;;;4998962;28;20931;-69
2020/12/08 06:58:57;;;;;;;47.53;29.67;;;2.70;99.90;;;;;;4995359;28;20260;-71
2020/12/08 07:01:24;;;;;;;46.13;31.50;;;2.70;99.90;;;;;;5021617;28;20224;-68
2020/12/08 07:03:52;;;;;;;47.70;31.00;;;2.70;99.90;;;;;;5013751;28;20205;-68
2020/12/08 07:06:19;;;;;;;46.00;31.00;;;2.70;99.90;;;;;;5011273;28;20209;-68
2020/12/08 07:08:48;;;;;;;49.67;31.33;;;2.70;99.90;;;;;;5014663;28;20200;-69
2020/12/08 07:11:18;;;;;;;44.67;31.27;;;2.70;99.90;;;;;;5014480;28;20323;-68
2020/12/08 07:13:56;;;;;;;48.43;31.40;;;2.70;99.90;;;;;;5014935;28;20208;-69
2020/12/08 07:16:25;;;;;;;48.70;31.07;;;2.70;99.90;;;;;;5005219;28;20655;-69
2020/12/08 07:18:53;;;;;;;46.93;31.87;;;2.70;99.90;;;;;;5006296;28;20737;-70
2020/12/08 07:21:20;;;;;;;54.43;32.57;;;2.70;99.90;;;;;;5006719;28;20229;-68
2020/12/08 07:23:50;;;;;;;47.80;30.60;;;2.70;99.90;;;;;;4995521;28;20202;-70
2020/12/08 07:26:22;;;;;;;52.10;32.80;;;2.70;99.90;;;;;;5013703;28;20211;-68
2020/12/08 07:28:49;;;;;;;50.33;33.17;;;2.80;99.90;;;;;;5006690;28;20233;-68
2020/12/08 07:31:20;;;;;;;52.50;32.10;;;2.80;99.90;;;;;;5007215;28;20211;-74
2020/12/08 07:33:47;;;;;;;47.70;31.47;;;2.80;99.90;;;;;;5020967;28;20210;-68
2020/12/08 07:36:24;;;;;;;47.57;30.97;;;2.80;99.90;;;;;;5028064;28;20568;-71
2020/12/08 07:38:53;;;;;;;48.93;30.40;;;2.80;99.90;;;;;;5011812;28;20764;-67
2020/12/08 07:41:21;;;;;;;49.20;32.03;;;2.80;99.90;;;;;;5017292;28;20336;-67
2020/12/08 07:43:48;;;;;;;51.33;31.97;;;2.80;99.90;;;;;;5014470;28;20205;-68
2020/12/08 07:46:22;;;;;;;45.20;31.03;;;2.80;99.90;;;;;;5017788;28;20201;-67
2020/12/08 07:49:05;;;;;;;46.70;31.03;;;2.80;99.90;;;;;;5022819;28;20200;-69
2020/12/08 07:51:33;;;;;;;49.47;31.63;;;2.80;99.90;;;;;;5014835;28;20573;-70
2020/12/08 07:54:01;;;;;;;45.30;30.70;;;2.80;99.90;;;;;;5015006;28;20714;-70
2020/12/08 07:56:29;;;;;;;49.63;31.77;;;2.80;99.90;;;;;;5005286;28;20658;-68
2020/12/08 07:58:56;;;;;;;47.53;31.70;;;2.80;99.90;;;;;;4994097;28;20201;-68
2020/12/08 08:01:23;;;;;;;41.97;28.70;;;2.90;99.90;;;;;;5003697;28;20296;-71
2020/12/08 08:04:08;;;;;;;46.87;30.97;;;2.80;99.90;;;;;;5011061;28;20212;-69
2020/12/08 08:06:34;;;;;;;47.27;29.47;;;2.90;99.90;;;;;;5014960;28;20559;-70
2020/12/08 08:09:05;;;;;;;48.40;31.10;;;2.90;99.90;;;;;;5017749;28;20637;-67
2020/12/08 08:11:33;;;;;;;45.37;29.73;;;2.90;99.90;;;;;;5022826;28;20258;-68
2020/12/08 08:13:59;;;;;;;44.77;30.53;;;2.90;99.90;;;;;;5014238;28;20514;-70
2020/12/08 08:16:26;;;;;;;47.20;30.50;;;2.90;99.90;;;;;;4998900;28;20220;-69
2020/12/08 08:18:53;;;;;;;44.60;29.80;;;2.90;99.90;;;;;;5000092;28;20201;-69
2020/12/08 08:21:19;;;;;;;42.70;29.97;;;2.90;99.90;;;;;;4993384;28;20754;-69
2020/12/08 08:23:46;;;;;;;47.10;30.53;;;2.90;99.90;;;;;;5006471;28;20212;-68
2020/12/08 08:26:14;;;;;;;47.30;30.03;;;2.90;99.90;;;;;;5012860;28;20215;-68
2020/12/08 08:28:41;;;;;;;41.60;30.17;;;2.90;99.90;;;;;;5032116;28;20200;-68
2020/12/08 08:31:08;;;;;;;43.80;29.63;;;2.90;99.90;;;;;;5021109;28;20196;-69
2020/12/08 08:33:34;;;;;;;43.37;29.40;;;2.90;99.90;;;;;;5019943;28;20227;-68
2020/12/08 08:36:01;;;;;;;44.40;29.10;;;3.00;99.90;;;;;;5008886;28;20202;-70
2020/12/08 08:38:27;;;;;;;45.60;29.73;;;3.00;99.90;;;;;;4993420;28;20201;-68
2020/12/08 08:40:56;;;;;;;52.10;31.43;;;3.00;99.90;;;;;;4998424;28;20283;-68
2020/12/08 08:43:24;;;;;;;44.47;31.23;;;3.10;99.90;;;;;;5011678;28;20705;-69
2020/12/08 08:45:51;;;;;;;44.40;29.87;;;3.10;99.90;;;;;;5010658;28;20204;-68
2020/12/08 08:48:17;;;;;;;51.67;30.03;;;3.10;99.90;;;;;;5008987;28;20204;-68
2020/12/08 08:50:44;;;;;;;46.50;31.20;;;3.20;99.90;;;;;;5012179;28;20197;-68
2020/12/08 08:53:10;;;;;;;46.80;31.17;;;3.20;99.90;;;;;;5020128;28;20258;-69
2020/12/08 08:55:37;;;;;;;48.43;30.83;;;3.20;99.90;;;;;;5000260;28;20237;-68
2020/12/08 08:58:03;;;;;;;41.63;29.83;;;3.30;99.90;;;;;;5018737;28;20208;-68
2020/12/08 09:00:31;;;;;;;48.27;31.00;;;3.30;99.90;;;;;;4995766;28;20205;-68
2020/12/08 09:02:58;;;;;;;45.67;30.87;;;3.40;99.90;;;;;;5030331;28;20223;-69
2020/12/08 09:05:25;;;;;;;45.07;29.97;;;3.40;99.90;;;;;;5017244;28;20200;-68
2020/12/08 09:07:52;;;;;;;46.27;29.60;;;3.50;99.90;;;;;;5012637;28;20658;-69
2020/12/08 09:10:18;;;;;;;47.70;32.83;;;3.60;99.90;;;;;;4999761;28;20202;-69
2020/12/08 09:12:45;;;;;;;43.77;30.10;;;3.70;99.90;;;;;;4992689;28;20201;-68
2020/12/08 09:15:12;;;;;;;45.43;30.60;;;3.80;99.90;;;;;;5000322;28;20211;-69
2020/12/08 09:17:39;;;;;;;38.00;28.80;;;3.90;99.90;;;;;;4999279;28;20210;-70
2020/12/08 09:20:06;;;;;;;40.13;28.53;;;4.00;99.90;;;;;;4992724;28;20201;-67
2020/12/08 09:22:32;;;;;;;38.70;27.47;;;4.10;99.90;;;;;;5016758;28;20279;-67
2020/12/08 09:24:59;;;;;;;39.20;27.67;;;4.10;99.90;;;;;;5006638;28;20201;-69
2020/12/08 09:27:26;;;;;;;37.87;28.37;;;4.20;99.90;;;;;;5031647;28;20215;-68
2020/12/08 09:29:52;;;;;;;39.67;28.60;;;4.20;99.90;;;;;;5030552;28;20201;-69
2020/12/08 09:32:19;;;;;;;35.47;26.27;;;4.30;99.90;;;;;;4993652;28;20204;-71
2020/12/08 09:34:47;;;;;;;34.57;25.93;;;4.40;99.90;;;;;;5000848;28;20247;-68
2020/12/08 09:37:13;;;;;;;36.10;24.87;;;4.40;99.90;;;;;;4994051;28;20201;-72
2020/12/08 09:39:40;;;;;;;33.87;25.73;;;4.50;99.90;;;;;;4992844;28;20204;-72
2020/12/08 09:42:06;;;;;;;34.27;25.47;;;4.50;99.90;;;;;;4996166;28;20229;-68
2020/12/08 09:44:33;;;;;;;31.43;24.20;;;4.50;99.90;;;;;;4992617;28;21153;-70
2020/12/08 09:46:59;;;;;;;28.77;22.53;;;4.50;99.90;;;;;;4992745;28;20212;-70
2020/12/08 09:49:26;;;;;;;40.60;23.60;;;4.50;99.90;;;;;;4997775;28;20201;-73
2020/12/08 09:51:53;;;;;;;35.90;24.73;;;4.50;99.90;;;;;;5000096;28;20198;-69
2020/12/08 09:54:20;;;;;;;35.03;24.27;;;4.50;99.90;;;;;;4993223;28;20240;-76
2020/12/08 09:56:47;;;;;;;34.83;24.80;;;4.60;99.90;;;;;;5005688;28;20260;-69
2020/12/08 09:59:14;;;;;;;34.87;24.03;;;4.60;99.90;;;;;;5008037;28;20208;-70
2020/12/08 10:01:40;;;;;;;31.07;23.97;;;4.60;99.90;;;;;;5006219;28;20248;-75
2020/12/08 10:04:07;;;;;;;30.43;23.03;;;4.50;99.90;;;;;;5006377;28;20208;-70
2020/12/08 10:06:34;;;;;;;31.50;24.33;;;4.40;99.90;;;;;;4996036;28;20197;-72
2020/12/08 10:09:01;;;;;;;33.20;25.10;;;4.50;99.90;;;;;;4998637;28;20210;-73
2020/12/08 10:11:28;;;;;;;32.67;24.10;;;4.50;99.90;;;;;;4997757;28;20212;-73
2020/12/08 10:13:55;;;;;;;30.97;23.23;;;4.50;99.90;;;;;;5000795;28;20208;-75
2020/12/08 10:16:23;;;;;;;32.43;23.50;;;4.50;99.90;;;;;;5007137;28;20255;-72
2020/12/08 10:18:52;;;;;;;36.63;24.40;;;4.50;99.90;;;;;;5003493;28;20259;-72
2020/12/08 10:21:19;;;;;;;34.13;24.77;;;4.40;99.90;;;;;;5002651;28;20197;-73
2020/12/08 10:23:46;;;;;;;32.03;23.93;;;4.40;99.90;;;;;;5002430;28;20228;-72
2020/12/08 10:26:13;;;;;;;31.00;24.03;;;4.40;99.90;;;;;;5004862;28;20723;-73
2020/12/08 10:28:40;;;;;;;29.30;23.13;;;4.40;99.90;;;;;;5002878;28;20279;-71
2020/12/08 10:31:06;;;;;;;33.73;24.70;;;4.60;99.90;;;;;;5004670;28;20197;-73
2020/12/08 10:33:33;;;;;;;31.67;23.70;;;4.70;99.90;;;;;;5005322;28;20209;-71
2020/12/08 10:36:00;;;;;;;32.20;24.87;;;4.80;99.90;;;;;;5002866;28;20654;-72
2020/12/08 10:38:27;;;;;;;34.37;24.67;;;4.90;99.90;;;;;;5002528;28;20568;-71
2020/12/08 10:40:54;;;;;;;30.70;22.90;;;5.00;99.90;;;;;;5002211;28;20193;-69
2020/12/08 10:43:21;;;;;;;29.57;22.83;;;5.20;99.90;;;;;;5003090;28;20747;-70
2020/12/08 10:45:48;;;;;;;28.60;21.07;;;5.40;99.90;;;;;;5001020;28;20204;-69
2020/12/08 10:48:15;;;;;;;27.37;21.53;;;5.70;99.90;;;;;;5004869;28;20205;-68
2020/12/08 10:50:43;;;;;;;27.17;21.43;;;5.90;99.90;;;;;;5002196;28;20201;-72
2020/12/08 10:53:09;;;;;;;28.20;21.60;;;6.40;99.90;;;;;;5001592;28;20259;-72
2020/12/08 10:55:36;;;;;;;25.60;19.30;;;6.90;99.90;;;;;;5002493;28;20232;-72
2020/12/08 10:58:03;;;;;;;24.73;19.23;;;7.30;99.90;;;;;;5001948;28;20310;-72
2020/12/08 11:00:31;;;;;;;22.80;19.00;;;7.40;99.90;;;;;;5002927;28;20193;-71
2020/12/08 11:02:59;;;;;;;23.93;18.73;;;7.40;99.90;;;;;;5000708;28;20225;-73
2020/12/08 11:05:26;;;;;;;24.20;18.57;;;7.60;99.90;;;;;;5002207;28;20928;-71
2020/12/08 11:07:52;;;;;;;25.47;19.20;;;7.90;99.90;;;;;;5003104;28;20205;-70
2020/12/08 11:10:19;;;;;;;23.00;19.40;;;8.20;99.90;;;;;;5007920;28;20205;-71
2020/12/08 11:12:45;;;;;;;24.93;18.23;;;8.50;99.90;;;;;;5023586;28;20259;-70
2020/12/08 11:15:12;;;;;;;23.03;18.20;;;8.60;99.90;;;;;;5014566;28;20654;-71
2020/12/08 11:17:41;;;;;;;22.73;17.63;;;8.60;99.90;;;;;;5012534;28;20263;-72
2020/12/08 11:20:09;;;;;;;23.90;19.00;;;8.60;99.90;;;;;;5005351;28;20202;-71
2020/12/08 11:22:35;;;;;;;22.00;18.40;;;8.60;99.90;;;;;;5031908;28;20235;-71
2020/12/08 11:25:03;;;;;;;21.40;17.27;;;8.40;99.90;;;;;;5028600;28;20197;-70
2020/12/08 11:27:30;;;;;;;24.73;17.50;;;8.30;99.90;;;;;;5032154;28;20672;-71
2020/12/08 11:29:56;;;;;;;20.73;17.70;;;8.20;99.90;;;;;;5022617;28;20315;-70
2020/12/08 11:32:23;;;;;;;21.57;17.17;;;8.40;99.90;;;;;;5014339;28;20658;-71
2020/12/08 11:34:51;;;;;;;22.70;17.30;;;8.50;99.90;;;;;;5014538;28;20208;-72
2020/12/08 11:37:18;;;;;;;20.17;16.73;;;8.60;99.90;;;;;;5027850;28;20300;-70
2020/12/08 11:39:45;;;;;;;24.17;17.67;;;8.60;99.90;;;;;;5014260;28;20324;-70
2020/12/08 11:42:14;;;;;;;23.53;18.40;;;8.80;99.90;;;;;;5026961;28;20311;-72
2020/12/08 11:44:41;;;;;;;24.40;18.53;;;9.00;99.90;;;;;;5011647;28;20205;-70
2020/12/08 11:47:07;;;;;;;19.93;16.40;;;9.10;99.90;;;;;;5012883;28;20201;-70
2020/12/08 11:49:36;;;;;;;20.33;16.63;;;9.20;99.90;;;;;;5012787;28;20205;-69
2020/12/08 11:52:04;;;;;;;21.27;16.77;;;9.10;99.90;;;;;;5026877;28;20286;-69
2020/12/08 11:54:30;;;;;;;20.37;16.90;;;9.00;99.90;;;;;;5032256;28;20297;-70
2020/12/08 11:56:57;;;;;;;20.37;17.10;;;9.00;99.90;;;;;;5033892;28;20196;-70
2020/12/08 11:59:23;;;;;;;24.33;17.63;;;8.90;99.90;;;;;;5032892;28;20204;-70
2020/12/08 12:01:50;;;;;;;21.60;17.37;;;8.60;99.90;;;;;;5027358;28;20223;-71
2020/12/08 12:04:17;;;;;;;24.77;17.50;;;8.60;99.90;;;;;;5009726;28;20212;-70
2020/12/08 12:06:43;;;;;;;22.03;18.47;;;8.60;99.90;;;;;;5013916;28;20193;-81
2020/12/08 12:09:11;;;;;;;21.83;16.97;;;8.60;99.90;;;;;;5006315;28;20442;-73
2020/12/08 12:11:38;;;;;;;21.70;17.50;;;8.90;99.90;;;;;;5002742;28;20565;-72
2020/12/08 12:14:05;;;;;;;20.83;17.00;;;9.40;99.90;;;;;;5010201;28;20219;-71
2020/12/08 12:16:32;;;;;;;21.67;17.20;;;10.00;99.90;;;;;;5020787;28;20254;-71
2020/12/08 12:18:58;;;;;;;22.67;17.07;;;10.30;99.90;;;;;;5033071;28;20250;-71
2020/12/08 12:21:25;;;;;;;20.47;16.00;;;10.50;99.90;;;;;;5019662;28;20201;-71
2020/12/08 12:23:51;;;;;;;20.33;15.80;;;10.80;99.90;;;;;;5011244;28;20232;-71
2020/12/08 12:26:19;;;;;;;19.90;16.50;;;11.20;99.90;;;;;;5013260;28;20677;-71
2020/12/08 12:28:45;;;;;;;19.77;15.67;;;11.40;99.90;;;;;;5026357;28;20595;-71
2020/12/08 12:31:12;;;;;;;18.10;15.20;;;11.70;99.90;;;;;;5032161;28;20291;-71
2020/12/08 12:33:38;;;;;;;18.67;14.97;;;11.90;99.90;;;;;;5019846;28;20193;-71
2020/12/08 12:36:06;;;;;;;18.13;15.17;;;12.00;99.90;;;;;;5010181;28;20197;-71